sensor_id;sensor_type;location;lat;lon;timestamp;temperature;humidity
14397;DHT22;50653;47.810;13.022;2023-07-29T00:01:31;18.70;99.90
14397;DHT22;50653;47.810;13.022;2023-07-29T00:03:57;18.70;99.90
14397;DHT22;50653;47.810;13.022;2023-07-29T00:06:23;18.60;99.90
14397;DHT22;50653;47.810;13.022;2023-07-29T00:08:49;18.50;99.90
14397;DHT22;50653;47.810;13.022;2023-07-29T00:11:15;18.50;99.90
14397;DHT22;50653;47.810;13.022;2023-07-29T00:13:40;18.50;99.90
14397;DHT22;50653;47.810;13.022;2023-07-29T00:16:06;18.50;99.90
14397;DHT22;50653;47.810;13.022;2023-07-29T00:18:32;18.50;99.90
14397;DHT22;50653;47.810;13.022;2023-07-29T00:20:58;18.50;99.90
14397;DHT22;50653;47.810;13.022;2023-07-29T00:23:23;18.50;99.90
14397;DHT22;50653;47.810;13.022;2023-07-29T00:25:49;18.60;99.90
14397;DHT22;50653;47.810;13.022;2023-07-29T00:28:15;18.60;99.90
14397;DHT22;50653;47.810;13.022;2023-07-29T00:30:40;18.60;99.90
14397;DHT22;50653;47.810;13.022;2023-07-29T00:33:06;18.60;99.90
14397;DHT22;50653;47.810;13.022;2023-07-29T00:35:32;18.60;99.90
14397;DHT22;50653;47.810;13.022;2023-07-29T00:37:59;18.70;99.90
14397;DHT22;50653;47.810;13.022;2023-07-29T00:40:28;18.70;99.90
14397;DHT22;50653;47.810;13.022;2023-07-29T00:42:54;18.70;99.90
14397;DHT22;50653;47.810;13.022;2023-07-29T00:45:20;18.70;99.90
14397;DHT22;50653;47.810;13.022;2023-07-29T00:47:46;18.70;99.90
14397;DHT22;50653;47.810;13.022;2023-07-29T00:50:12;18.70;99.90
14397;DHT22;50653;47.810;13.022;2023-07-29T00:52:39;18.70;99.90
14397;DHT22;50653;47.810;13.022;2023-07-29T00:55:05;18.80;99.90
14397;DHT22;50653;47.810;13.022;2023-07-29T00:57:32;18.80;99.90
14397;DHT22;50653;47.810;13.022;2023-07-29T00:59:59;18.70;99.90
14397;DHT22;50653;47.810;13.022;2023-07-29T01:02:25;18.70;99.90
14397;DHT22;50653;47.810;13.022;2023-07-29T01:04:56;18.70;99.90
14397;DHT22;50653;47.810;13.022;2023-07-29T01:07:39;18.80;99.90
14397;DHT22;50653;47.810;13.022;2023-07-29T01:15:49;18.80;99.90
14397;DHT22;50653;47.810;13.022;2023-07-29T01:18:31;18.80;99.90
14397;DHT22;50653;47.810;13.022;2023-07-29T01:21:04;18.80;99.90
14397;DHT22;50653;47.810;13.022;2023-07-29T01:23:34;18.80;99.90
14397;DHT22;50653;47.810;13.022;2023-07-29T01:26:00;18.80;99.90
14397;DHT22;50653;47.810;13.022;2023-07-29T01:28:27;18.80;99.90
14397;DHT22;50653;47.810;13.022;2023-07-29T01:31:01;18.80;99.90
14397;DHT22;50653;47.810;13.022;2023-07-29T01:33:33;18.50;99.90
14397;DHT22;50653;47.810;13.022;2023-07-29T01:36:07;18.50;99.90
14397;DHT22;50653;47.810;13.022;2023-07-29T01:38:38;18.40;99.90
14397;DHT22;50653;47.810;13.022;2023-07-29T01:41:08;18.60;99.90
14397;DHT22;50653;47.810;13.022;2023-07-29T01:43:34;18.60;99.90
14397;DHT22;50653;47.810;13.022;2023-07-29T01:46:05;18.60;99.90
14397;DHT22;50653;47.810;13.022;2023-07-29T01:48:31;18.60;99.90
14397;DHT22;50653;47.810;13.022;2023-07-29T01:50:57;18.70;99.90
14397;DHT22;50653;47.810;13.022;2023-07-29T01:53:23;18.70;99.90
14397;DHT22;50653;47.810;13.022;2023-07-29T01:55:49;18.70;99.90
14397;DHT22;50653;47.810;13.022;2023-07-29T01:58:15;18.60;99.90
14397;DHT22;50653;47.810;13.022;2023-07-29T02:00:45;18.60;99.90
14397;DHT22;50653;47.810;13.022;2023-07-29T02:03:11;18.60;99.90
14397;DHT22;50653;47.810;13.022;2023-07-29T02:05:36;18.60;99.90
14397;DHT22;50653;47.810;13.022;2023-07-29T02:08:02;18.60;99.90
14397;DHT22;50653;47.810;13.022;2023-07-29T02:10:28;18.60;99.90
14397;DHT22;50653;47.810;13.022;2023-07-29T02:12:53;18.60;99.90
14397;DHT22;50653;47.810;13.022;2023-07-29T02:15:19;18.60;99.90
14397;DHT22;50653;47.810;13.022;2023-07-29T02:17:45;18.50;99.90
14397;DHT22;50653;47.810;13.022;2023-07-29T02:20:11;18.50;99.90
14397;DHT22;50653;47.810;13.022;2023-07-29T02:22:37;18.50;99.90
14397;DHT22;50653;47.810;13.022;2023-07-29T02:25:03;18.50;99.90
14397;DHT22;50653;47.810;13.022;2023-07-29T02:27:29;18.50;99.90
14397;DHT22;50653;47.810;13.022;2023-07-29T02:29:55;18.40;99.90
14397;DHT22;50653;47.810;13.022;2023-07-29T02:32:21;18.40;99.90
14397;DHT22;50653;47.810;13.022;2023-07-29T02:34:46;18.50;99.90
14397;DHT22;50653;47.810;13.022;2023-07-29T02:37:12;18.30;99.90
14397;DHT22;50653;47.810;13.022;2023-07-29T02:39:38;18.30;99.90
14397;DHT22;50653;47.810;13.022;2023-07-29T02:42:04;18.30;99.90
14397;DHT22;50653;47.810;13.022;2023-07-29T02:44:30;18.40;99.90
14397;DHT22;50653;47.810;13.022;2023-07-29T02:46:55;18.30;99.90
14397;DHT22;50653;47.810;13.022;2023-07-29T02:49:24;18.30;99.90
14397;DHT22;50653;47.810;13.022;2023-07-29T02:51:50;18.30;99.90
14397;DHT22;50653;47.810;13.022;2023-07-29T02:54:16;18.30;99.90
14397;DHT22;50653;47.810;13.022;2023-07-29T02:56:41;18.20;99.90
14397;DHT22;50653;47.810;13.022;2023-07-29T02:59:07;18.10;99.90
14397;DHT22;50653;47.810;13.022;2023-07-29T03:01:33;18.10;99.90
14397;DHT22;50653;47.810;13.022;2023-07-29T03:03:58;18.10;99.90
14397;DHT22;50653;47.810;13.022;2023-07-29T03:06:24;18.10;99.90
14397;DHT22;50653;47.810;13.022;2023-07-29T03:08:50;18.10;99.90
14397;DHT22;50653;47.810;13.022;2023-07-29T03:11:16;18.00;99.90
14397;DHT22;50653;47.810;13.022;2023-07-29T03:13:43;18.20;99.90
14397;DHT22;50653;47.810;13.022;2023-07-29T03:16:14;18.20;99.90
14397;DHT22;50653;47.810;13.022;2023-07-29T03:18:44;18.10;99.90
14397;DHT22;50653;47.810;13.022;2023-07-29T03:21:10;18.10;99.90
14397;DHT22;50653;47.810;13.022;2023-07-29T03:23:37;18.20;99.90
14397;DHT22;50653;47.810;13.022;2023-07-29T03:26:03;18.30;99.90
14397;DHT22;50653;47.810;13.022;2023-07-29T03:28:41;18.20;99.90
14397;DHT22;50653;47.810;13.022;2023-07-29T03:31:07;18.10;99.90
14397;DHT22;50653;47.810;13.022;2023-07-29T03:33:33;18.20;99.90
14397;DHT22;50653;47.810;13.022;2023-07-29T03:35:59;18.20;99.90
14397;DHT22;50653;47.810;13.022;2023-07-29T03:38:25;18.20;99.90
14397;DHT22;50653;47.810;13.022;2023-07-29T03:40:50;18.20;99.90
14397;DHT22;50653;47.810;13.022;2023-07-29T03:43:16;18.30;99.90
14397;DHT22;50653;47.810;13.022;2023-07-29T03:45:42;18.20;99.90
14397;DHT22;50653;47.810;13.022;2023-07-29T03:48:08;18.20;99.90
14397;DHT22;50653;47.810;13.022;2023-07-29T03:50:35;18.20;99.90
14397;DHT22;50653;47.810;13.022;2023-07-29T03:53:05;18.20;99.90
14397;DHT22;50653;47.810;13.022;2023-07-29T03:55:31;18.20;99.90
14397;DHT22;50653;47.810;13.022;2023-07-29T03:57:58;18.10;99.90
14397;DHT22;50653;47.810;13.022;2023-07-29T04:00:24;18.20;99.90
14397;DHT22;50653;47.810;13.022;2023-07-29T04:02:50;18.30;99.90
14397;DHT22;50653;47.810;13.022;2023-07-29T04:05:16;18.40;99.90
14397;DHT22;50653;47.810;13.022;2023-07-29T04:07:42;18.40;99.90
14397;DHT22;50653;47.810;13.022;2023-07-29T04:10:09;18.40;99.90
14397;DHT22;50653;47.810;13.022;2023-07-29T04:12:34;18.40;99.90
14397;DHT22;50653;47.810;13.022;2023-07-29T04:15:00;18.40;99.90
14397;DHT22;50653;47.810;13.022;2023-07-29T04:17:26;18.40;99.90
14397;DHT22;50653;47.810;13.022;2023-07-29T04:19:52;18.40;99.90
14397;DHT22;50653;47.810;13.022;2023-07-29T04:22:19;18.40;99.90
14397;DHT22;50653;47.810;13.022;2023-07-29T04:24:45;18.40;99.90
14397;DHT22;50653;47.810;13.022;2023-07-29T04:27:10;18.50;99.90
14397;DHT22;50653;47.810;13.022;2023-07-29T04:29:36;18.50;99.90
14397;DHT22;50653;47.810;13.022;2023-07-29T04:32:02;18.50;99.90
14397;DHT22;50653;47.810;13.022;2023-07-29T04:34:28;18.60;99.90
14397;DHT22;50653;47.810;13.022;2023-07-29T04:36:54;18.50;99.90
14397;DHT22;50653;47.810;13.022;2023-07-29T04:39:20;18.60;99.90
14397;DHT22;50653;47.810;13.022;2023-07-29T04:41:46;18.50;99.90
14397;DHT22;50653;47.810;13.022;2023-07-29T04:44:11;18.60;99.90
14397;DHT22;50653;47.810;13.022;2023-07-29T04:46:37;18.60;99.90
14397;DHT22;50653;47.810;13.022;2023-07-29T04:49:04;18.70;99.90
14397;DHT22;50653;47.810;13.022;2023-07-29T04:51:30;18.90;99.90
14397;DHT22;50653;47.810;13.022;2023-07-29T04:53:57;18.90;99.90
14397;DHT22;50653;47.810;13.022;2023-07-29T04:56:23;18.70;99.90
14397;DHT22;50653;47.810;13.022;2023-07-29T04:58:49;18.90;99.90
14397;DHT22;50653;47.810;13.022;2023-07-29T05:01:14;19.00;99.90
14397;DHT22;50653;47.810;13.022;2023-07-29T05:03:40;19.10;99.90
14397;DHT22;50653;47.810;13.022;2023-07-29T05:06:06;19.20;99.90
14397;DHT22;50653;47.810;13.022;2023-07-29T05:08:32;19.20;99.90
14397;DHT22;50653;47.810;13.022;2023-07-29T05:10:57;19.20;99.90
14397;DHT22;50653;47.810;13.022;2023-07-29T05:13:23;19.30;99.90
14397;DHT22;50653;47.810;13.022;2023-07-29T05:15:49;19.00;99.90
14397;DHT22;50653;47.810;13.022;2023-07-29T05:18:16;19.00;99.90
14397;DHT22;50653;47.810;13.022;2023-07-29T05:20:42;19.00;99.90
14397;DHT22;50653;47.810;13.022;2023-07-29T05:23:08;19.00;99.90
14397;DHT22;50653;47.810;13.022;2023-07-29T05:25:33;19.00;99.90
14397;DHT22;50653;47.810;13.022;2023-07-29T05:28:02;18.70;99.90
14397;DHT22;50653;47.810;13.022;2023-07-29T05:30:28;18.70;99.90
14397;DHT22;50653;47.810;13.022;2023-07-29T05:32:59;18.80;99.90
14397;DHT22;50653;47.810;13.022;2023-07-29T05:35:25;19.00;99.90
14397;DHT22;50653;47.810;13.022;2023-07-29T05:37:51;19.00;99.90
14397;DHT22;50653;47.810;13.022;2023-07-29T05:40:17;19.10;99.90
14397;DHT22;50653;47.810;13.022;2023-07-29T05:42:43;18.90;99.90
14397;DHT22;50653;47.810;13.022;2023-07-29T05:45:10;19.20;99.90
14397;DHT22;50653;47.810;13.022;2023-07-29T05:47:36;19.30;99.90
14397;DHT22;50653;47.810;13.022;2023-07-29T05:50:03;19.30;99.90
14397;DHT22;50653;47.810;13.022;2023-07-29T05:52:31;19.50;99.90
14397;DHT22;50653;47.810;13.022;2023-07-29T05:54:56;19.50;99.90
14397;DHT22;50653;47.810;13.022;2023-07-29T05:57:22;19.60;99.90
14397;DHT22;50653;47.810;13.022;2023-07-29T05:59:48;19.40;99.90
14397;DHT22;50653;47.810;13.022;2023-07-29T06:02:13;19.50;99.90
14397;DHT22;50653;47.810;13.022;2023-07-29T06:04:39;19.60;99.90
14397;DHT22;50653;47.810;13.022;2023-07-29T06:07:07;19.70;99.90
14397;DHT22;50653;47.810;13.022;2023-07-29T06:09:33;19.90;99.90
14397;DHT22;50653;47.810;13.022;2023-07-29T06:11:58;20.00;99.90
14397;DHT22;50653;47.810;13.022;2023-07-29T06:14:24;19.80;99.90
14397;DHT22;50653;47.810;13.022;2023-07-29T06:16:49;19.80;99.90
14397;DHT22;50653;47.810;13.022;2023-07-29T06:19:15;19.70;99.90
14397;DHT22;50653;47.810;13.022;2023-07-29T06:21:41;19.80;99.90
14397;DHT22;50653;47.810;13.022;2023-07-29T06:24:07;20.00;99.90
14397;DHT22;50653;47.810;13.022;2023-07-29T06:26:33;20.10;99.90
14397;DHT22;50653;47.810;13.022;2023-07-29T06:28:58;20.10;99.90
14397;DHT22;50653;47.810;13.022;2023-07-29T06:31:24;20.20;99.90
14397;DHT22;50653;47.810;13.022;2023-07-29T06:33:50;20.30;99.90
14397;DHT22;50653;47.810;13.022;2023-07-29T06:36:15;20.30;99.90
14397;DHT22;50653;47.810;13.022;2023-07-29T06:38:41;20.30;99.90
14397;DHT22;50653;47.810;13.022;2023-07-29T06:41:07;20.50;99.90
14397;DHT22;50653;47.810;13.022;2023-07-29T06:43:33;20.70;99.90
14397;DHT22;50653;47.810;13.022;2023-07-29T06:45:59;20.60;99.90
14397;DHT22;50653;47.810;13.022;2023-07-29T06:48:24;20.90;99.90
14397;DHT22;50653;47.810;13.022;2023-07-29T06:50:50;20.80;99.90
14397;DHT22;50653;47.810;13.022;2023-07-29T06:53:16;21.00;99.90
14397;DHT22;50653;47.810;13.022;2023-07-29T06:55:43;21.10;99.90
14397;DHT22;50653;47.810;13.022;2023-07-29T06:58:09;21.10;99.90
14397;DHT22;50653;47.810;13.022;2023-07-29T07:00:35;21.00;99.90
14397;DHT22;50653;47.810;13.022;2023-07-29T07:03:01;21.00;99.90
14397;DHT22;50653;47.810;13.022;2023-07-29T07:05:26;20.90;99.90
14397;DHT22;50653;47.810;13.022;2023-07-29T07:07:52;20.80;99.90
14397;DHT22;50653;47.810;13.022;2023-07-29T07:10:18;20.80;99.90
14397;DHT22;50653;47.810;13.022;2023-07-29T07:12:43;20.80;99.90
14397;DHT22;50653;47.810;13.022;2023-07-29T07:15:09;21.00;99.90
14397;DHT22;50653;47.810;13.022;2023-07-29T07:17:35;21.10;99.90
14397;DHT22;50653;47.810;13.022;2023-07-29T07:20:00;21.40;99.90
14397;DHT22;50653;47.810;13.022;2023-07-29T07:22:26;21.60;99.90
14397;DHT22;50653;47.810;13.022;2023-07-29T07:24:52;21.80;99.90
14397;DHT22;50653;47.810;13.022;2023-07-29T07:27:17;21.90;99.90
14397;DHT22;50653;47.810;13.022;2023-07-29T07:29:43;22.00;99.90
14397;DHT22;50653;47.810;13.022;2023-07-29T07:32:09;21.90;99.90
14397;DHT22;50653;47.810;13.022;2023-07-29T07:34:34;22.10;99.90
14397;DHT22;50653;47.810;13.022;2023-07-29T07:37:00;22.20;99.90
14397;DHT22;50653;47.810;13.022;2023-07-29T07:39:26;22.10;99.90
14397;DHT22;50653;47.810;13.022;2023-07-29T07:41:52;22.10;99.90
14397;DHT22;50653;47.810;13.022;2023-07-29T07:44:18;22.20;99.90
14397;DHT22;50653;47.810;13.022;2023-07-29T07:46:45;22.30;99.90
14397;DHT22;50653;47.810;13.022;2023-07-29T07:49:11;22.50;99.90
14397;DHT22;50653;47.810;13.022;2023-07-29T07:51:38;22.60;99.90
14397;DHT22;50653;47.810;13.022;2023-07-29T07:54:03;22.50;99.90
14397;DHT22;50653;47.810;13.022;2023-07-29T07:56:29;22.40;99.90
14397;DHT22;50653;47.810;13.022;2023-07-29T07:58:55;22.60;99.90
14397;DHT22;50653;47.810;13.022;2023-07-29T08:01:20;22.70;99.90
14397;DHT22;50653;47.810;13.022;2023-07-29T08:03:46;22.80;99.90
14397;DHT22;50653;47.810;13.022;2023-07-29T08:06:12;23.00;99.90
14397;DHT22;50653;47.810;13.022;2023-07-29T08:08:37;23.10;99.90
14397;DHT22;50653;47.810;13.022;2023-07-29T08:11:03;23.10;99.90
14397;DHT22;50653;47.810;13.022;2023-07-29T08:13:28;23.10;99.90
14397;DHT22;50653;47.810;13.022;2023-07-29T08:15:54;23.10;99.90
14397;DHT22;50653;47.810;13.022;2023-07-29T08:18:20;23.10;99.90
14397;DHT22;50653;47.810;13.022;2023-07-29T08:20:57;23.00;99.90
14397;DHT22;50653;47.810;13.022;2023-07-29T08:23:24;23.10;99.90
14397;DHT22;50653;47.810;13.022;2023-07-29T08:25:53;23.20;99.90
14397;DHT22;50653;47.810;13.022;2023-07-29T08:28:18;23.10;99.90
14397;DHT22;50653;47.810;13.022;2023-07-29T08:30:44;23.00;99.90
14397;DHT22;50653;47.810;13.022;2023-07-29T08:33:10;23.10;99.90
14397;DHT22;50653;47.810;13.022;2023-07-29T08:35:35;22.90;99.90
14397;DHT22;50653;47.810;13.022;2023-07-29T08:38:02;22.80;99.90
14397;DHT22;50653;47.810;13.022;2023-07-29T08:40:29;22.80;99.90
14397;DHT22;50653;47.810;13.022;2023-07-29T08:42:58;22.70;99.90
14397;DHT22;50653;47.810;13.022;2023-07-29T08:45:24;22.60;99.90
14397;DHT22;50653;47.810;13.022;2023-07-29T08:47:54;22.60;99.90
14397;DHT22;50653;47.810;13.022;2023-07-29T08:50:24;22.60;99.90
14397;DHT22;50653;47.810;13.022;2023-07-29T08:52:51;22.70;99.90
14397;DHT22;50653;47.810;13.022;2023-07-29T08:55:18;22.70;99.90
14397;DHT22;50653;47.810;13.022;2023-07-29T08:57:44;22.70;99.90
14397;DHT22;50653;47.810;13.022;2023-07-29T09:00:11;22.70;99.90
14397;DHT22;50653;47.810;13.022;2023-07-29T09:02:37;22.60;99.90
14397;DHT22;50653;47.810;13.022;2023-07-29T09:05:02;22.60;99.90
14397;DHT22;50653;47.810;13.022;2023-07-29T09:07:29;22.40;99.90
14397;DHT22;50653;47.810;13.022;2023-07-29T09:09:54;22.30;99.90
14397;DHT22;50653;47.810;13.022;2023-07-29T09:12:20;22.50;99.90
14397;DHT22;50653;47.810;13.022;2023-07-29T09:14:46;22.40;99.90
14397;DHT22;50653;47.810;13.022;2023-07-29T09:17:12;22.50;99.90
14397;DHT22;50653;47.810;13.022;2023-07-29T09:19:39;22.40;99.90
14397;DHT22;50653;47.810;13.022;2023-07-29T09:22:05;22.40;99.90
14397;DHT22;50653;47.810;13.022;2023-07-29T09:24:42;22.30;99.90
14397;DHT22;50653;47.810;13.022;2023-07-29T09:27:07;22.40;99.90
14397;DHT22;50653;47.810;13.022;2023-07-29T09:29:35;22.40;99.90
14397;DHT22;50653;47.810;13.022;2023-07-29T09:32:24;22.40;99.90
14397;DHT22;50653;47.810;13.022;2023-07-29T09:34:50;22.40;99.90
14397;DHT22;50653;47.810;13.022;2023-07-29T09:37:23;22.50;99.90
14397;DHT22;50653;47.810;13.022;2023-07-29T09:39:49;22.40;99.90
14397;DHT22;50653;47.810;13.022;2023-07-29T09:42:20;22.60;99.90
14397;DHT22;50653;47.810;13.022;2023-07-29T09:44:48;22.60;99.90
14397;DHT22;50653;47.810;13.022;2023-07-29T09:47:23;22.80;99.90
14397;DHT22;50653;47.810;13.022;2023-07-29T09:49:50;22.70;99.90
14397;DHT22;50653;47.810;13.022;2023-07-29T09:52:17;22.70;99.90
14397;DHT22;50653;47.810;13.022;2023-07-29T09:54:44;22.80;99.90
14397;DHT22;50653;47.810;13.022;2023-07-29T09:57:11;22.70;99.90
14397;DHT22;50653;47.810;13.022;2023-07-29T09:59:37;22.80;99.90
14397;DHT22;50653;47.810;13.022;2023-07-29T10:02:03;22.70;99.90
14397;DHT22;50653;47.810;13.022;2023-07-29T10:04:29;22.80;99.90
14397;DHT22;50653;47.810;13.022;2023-07-29T10:06:57;23.00;99.90
14397;DHT22;50653;47.810;13.022;2023-07-29T10:09:23;23.10;99.90
14397;DHT22;50653;47.810;13.022;2023-07-29T10:11:50;23.10;99.90
14397;DHT22;50653;47.810;13.022;2023-07-29T10:14:16;23.10;99.90
14397;DHT22;50653;47.810;13.022;2023-07-29T10:16:43;23.00;99.90
14397;DHT22;50653;47.810;13.022;2023-07-29T10:19:11;23.00;99.90
14397;DHT22;50653;47.810;13.022;2023-07-29T10:21:39;23.00;99.90
14397;DHT22;50653;47.810;13.022;2023-07-29T10:24:09;22.90;99.90
14397;DHT22;50653;47.810;13.022;2023-07-29T10:26:39;22.70;99.90
14397;DHT22;50653;47.810;13.022;2023-07-29T10:29:07;22.90;99.90
14397;DHT22;50653;47.810;13.022;2023-07-29T10:31:37;23.00;99.90
14397;DHT22;50653;47.810;13.022;2023-07-29T10:34:04;22.90;99.90
14397;DHT22;50653;47.810;13.022;2023-07-29T10:36:30;23.10;99.90
14397;DHT22;50653;47.810;13.022;2023-07-29T10:38:56;23.30;99.90
14397;DHT22;50653;47.810;13.022;2023-07-29T10:41:22;23.30;99.90
14397;DHT22;50653;47.810;13.022;2023-07-29T10:43:48;23.30;99.90
14397;DHT22;50653;47.810;13.022;2023-07-29T10:46:18;23.50;99.90
14397;DHT22;50653;47.810;13.022;2023-07-29T10:51:28;23.60;99.90
14397;DHT22;50653;47.810;13.022;2023-07-29T10:54:02;23.70;99.90
14397;DHT22;50653;47.810;13.022;2023-07-29T10:56:35;23.90;99.90
14397;DHT22;50653;47.810;13.022;2023-07-29T10:59:31;23.90;99.90
14397;DHT22;50653;47.810;13.022;2023-07-29T11:02:01;23.70;99.90
14397;DHT22;50653;47.810;13.022;2023-07-29T11:04:28;23.90;99.90
14397;DHT22;50653;47.810;13.022;2023-07-29T11:15:24;24.40;99.90
14397;DHT22;50653;47.810;13.022;2023-07-29T11:17:57;24.40;99.90
14397;DHT22;50653;47.810;13.022;2023-07-29T11:20:28;24.60;99.90
14397;DHT22;50653;47.810;13.022;2023-07-29T11:22:55;24.70;99.90
14397;DHT22;50653;47.810;13.022;2023-07-29T11:25:22;24.80;99.90
14397;DHT22;50653;47.810;13.022;2023-07-29T11:27:48;24.90;99.90
14397;DHT22;50653;47.810;13.022;2023-07-29T11:30:15;25.00;99.90
14397;DHT22;50653;47.810;13.022;2023-07-29T11:32:43;25.10;99.90
14397;DHT22;50653;47.810;13.022;2023-07-29T11:35:16;25.30;99.90
14397;DHT22;50653;47.810;13.022;2023-07-29T11:37:45;25.60;99.90
14397;DHT22;50653;47.810;13.022;2023-07-29T11:40:17;25.80;99.40
14397;DHT22;50653;47.810;13.022;2023-07-29T11:42:45;25.80;98.70
14397;DHT22;50653;47.810;13.022;2023-07-29T11:45:13;25.90;98.90
14397;DHT22;50653;47.810;13.022;2023-07-29T11:47:39;26.00;98.40
14397;DHT22;50653;47.810;13.022;2023-07-29T11:50:07;26.10;96.80
14397;DHT22;50653;47.810;13.022;2023-07-29T11:52:37;26.10;96.80
14397;DHT22;50653;47.810;13.022;2023-07-29T11:55:05;26.20;97.10
14397;DHT22;50653;47.810;13.022;2023-07-29T11:57:34;26.20;96.80
14397;DHT22;50653;47.810;13.022;2023-07-29T12:00:04;26.10;97.30
14397;DHT22;50653;47.810;13.022;2023-07-29T12:02:36;26.10;96.40
14397;DHT22;50653;47.810;13.022;2023-07-29T12:05:04;26.10;95.50
14397;DHT22;50653;47.810;13.022;2023-07-29T12:07:30;26.20;95.70
14397;DHT22;50653;47.810;13.022;2023-07-29T12:09:55;26.20;94.80
14397;DHT22;50653;47.810;13.022;2023-07-29T12:12:24;26.20;94.70
14397;DHT22;50653;47.810;13.022;2023-07-29T12:14:50;26.40;94.00
14397;DHT22;50653;47.810;13.022;2023-07-29T12:17:15;26.60;92.20
14397;DHT22;50653;47.810;13.022;2023-07-29T12:19:42;26.40;90.90
14397;DHT22;50653;47.810;13.022;2023-07-29T12:22:09;26.40;90.60
14397;DHT22;50653;47.810;13.022;2023-07-29T12:24:39;26.60;91.40
14397;DHT22;50653;47.810;13.022;2023-07-29T12:27:10;26.40;92.30
14397;DHT22;50653;47.810;13.022;2023-07-29T12:29:40;26.50;93.20
14397;DHT22;50653;47.810;13.022;2023-07-29T12:32:06;26.70;92.90
14397;DHT22;50653;47.810;13.022;2023-07-29T12:34:32;26.50;91.60
14397;DHT22;50653;47.810;13.022;2023-07-29T12:36:58;26.80;91.00
14397;DHT22;50653;47.810;13.022;2023-07-29T12:39:29;26.90;90.60
14397;DHT22;50653;47.810;13.022;2023-07-29T12:41:57;27.00;91.10
14397;DHT22;50653;47.810;13.022;2023-07-29T12:44:34;27.00;90.20
14397;DHT22;50653;47.810;13.022;2023-07-29T12:47:04;26.90;90.00
14397;DHT22;50653;47.810;13.022;2023-07-29T12:49:30;27.00;89.30
14397;DHT22;50653;47.810;13.022;2023-07-29T12:51:57;27.30;89.30
14397;DHT22;50653;47.810;13.022;2023-07-29T12:54:23;27.10;87.30
14397;DHT22;50653;47.810;13.022;2023-07-29T12:56:49;26.90;88.60
14397;DHT22;50653;47.810;13.022;2023-07-29T12:59:15;26.90;85.50
14397;DHT22;50653;47.810;13.022;2023-07-29T13:01:40;26.60;86.80
14397;DHT22;50653;47.810;13.022;2023-07-29T13:04:06;26.70;86.90
14397;DHT22;50653;47.810;13.022;2023-07-29T13:06:32;26.80;86.30
14397;DHT22;50653;47.810;13.022;2023-07-29T13:08:57;26.70;85.50
14397;DHT22;50653;47.810;13.022;2023-07-29T13:11:23;26.50;85.80
14397;DHT22;50653;47.810;13.022;2023-07-29T13:13:49;26.40;85.70
14397;DHT22;50653;47.810;13.022;2023-07-29T13:16:16;25.50;88.50
14397;DHT22;50653;47.810;13.022;2023-07-29T13:18:43;24.70;90.40
14397;DHT22;50653;47.810;13.022;2023-07-29T13:21:09;24.70;91.50
14397;DHT22;50653;47.810;13.022;2023-07-29T13:23:34;24.90;91.60
14397;DHT22;50653;47.810;13.022;2023-07-29T13:26:00;24.60;91.50
14397;DHT22;50653;47.810;13.022;2023-07-29T13:28:26;24.60;91.30
14397;DHT22;50653;47.810;13.022;2023-07-29T13:30:52;24.90;91.60
14397;DHT22;50653;47.810;13.022;2023-07-29T13:33:17;24.30;91.70
14397;DHT22;50653;47.810;13.022;2023-07-29T13:35:43;23.90;91.70
14397;DHT22;50653;47.810;13.022;2023-07-29T13:38:08;24.10;92.40
14397;DHT22;50653;47.810;13.022;2023-07-29T13:40:34;24.20;92.50
14397;DHT22;50653;47.810;13.022;2023-07-29T13:43:00;24.20;92.70
14397;DHT22;50653;47.810;13.022;2023-07-29T13:45:26;24.30;92.80
14397;DHT22;50653;47.810;13.022;2023-07-29T13:47:51;24.80;93.20
14397;DHT22;50653;47.810;13.022;2023-07-29T13:50:17;24.90;93.30
14397;DHT22;50653;47.810;13.022;2023-07-29T13:52:44;24.90;92.70
14397;DHT22;50653;47.810;13.022;2023-07-29T13:55:09;24.70;93.40
14397;DHT22;50653;47.810;13.022;2023-07-29T13:57:37;24.80;93.00
14397;DHT22;50653;47.810;13.022;2023-07-29T14:00:03;24.50;93.00
14397;DHT22;50653;47.810;13.022;2023-07-29T14:02:37;24.20;93.40
14397;DHT22;50653;47.810;13.022;2023-07-29T14:05:02;24.30;93.70
14397;DHT22;50653;47.810;13.022;2023-07-29T14:07:28;24.60;94.10
14397;DHT22;50653;47.810;13.022;2023-07-29T14:09:54;25.10;93.80
14397;DHT22;50653;47.810;13.022;2023-07-29T14:12:20;25.10;93.10
14397;DHT22;50653;47.810;13.022;2023-07-29T14:14:45;25.20;92.90
14397;DHT22;50653;47.810;13.022;2023-07-29T14:17:11;25.20;92.90
14397;DHT22;50653;47.810;13.022;2023-07-29T14:19:37;25.40;92.80
14397;DHT22;50653;47.810;13.022;2023-07-29T14:22:03;25.40;92.60
14397;DHT22;50653;47.810;13.022;2023-07-29T14:24:29;25.60;92.70
14397;DHT22;50653;47.810;13.022;2023-07-29T14:26:54;25.70;92.50
14397;DHT22;50653;47.810;13.022;2023-07-29T14:29:20;25.50;92.30
14397;DHT22;50653;47.810;13.022;2023-07-29T14:31:45;25.30;92.80
14397;DHT22;50653;47.810;13.022;2023-07-29T14:34:11;24.60;93.60
14397;DHT22;50653;47.810;13.022;2023-07-29T14:36:37;24.60;93.70
14397;DHT22;50653;47.810;13.022;2023-07-29T14:39:03;25.10;93.90
14397;DHT22;50653;47.810;13.022;2023-07-29T14:41:30;25.20;93.00
14397;DHT22;50653;47.810;13.022;2023-07-29T14:43:55;25.20;93.10
14397;DHT22;50653;47.810;13.022;2023-07-29T14:46:21;25.10;93.50
14397;DHT22;50653;47.810;13.022;2023-07-29T14:48:46;24.70;93.50
14397;DHT22;50653;47.810;13.022;2023-07-29T14:51:13;24.80;94.20
14397;DHT22;50653;47.810;13.022;2023-07-29T14:53:39;24.30;93.30
14397;DHT22;50653;47.810;13.022;2023-07-29T14:56:04;23.60;93.90
14397;DHT22;50653;47.810;13.022;2023-07-29T14:58:30;23.40;94.70
14397;DHT22;50653;47.810;13.022;2023-07-29T15:00:56;23.40;95.30
14397;DHT22;50653;47.810;13.022;2023-07-29T15:03:21;23.50;95.60
14397;DHT22;50653;47.810;13.022;2023-07-29T15:05:47;23.20;95.30
14397;DHT22;50653;47.810;13.022;2023-07-29T15:08:14;23.30;95.50
14397;DHT22;50653;47.810;13.022;2023-07-29T15:10:39;23.10;95.60
14397;DHT22;50653;47.810;13.022;2023-07-29T15:13:05;20.90;99.90
14397;DHT22;50653;47.810;13.022;2023-07-29T15:15:31;19.30;99.90
14397;DHT22;50653;47.810;13.022;2023-07-29T15:17:57;19.60;99.90
14397;DHT22;50653;47.810;13.022;2023-07-29T15:20:22;19.90;99.90
14397;DHT22;50653;47.810;13.022;2023-07-29T15:22:48;19.70;99.90
14397;DHT22;50653;47.810;13.022;2023-07-29T15:25:14;20.10;99.90
14397;DHT22;50653;47.810;13.022;2023-07-29T15:27:39;20.40;99.90
14397;DHT22;50653;47.810;13.022;2023-07-29T15:30:08;20.60;99.90